Time;durP1;ratioP1;P1;durP2;ratioP2;P2;SDS_P1;SDS_P2;PMS_P1;PMS_P2;Temp;Humidity;BMP_temperature;BMP_pressure;BME280_temperature;BME280_humidity;BME280_pressure;Samples;Min_cycle;Max_cycle;Signal;HPM_P1;HPM_P2
2021/01/11 00:00:32;;;;;;;;;;;;;;;8.91;46.18;101166.75;4947544;28;20123;-77
2021/01/11 00:02:59;;;;;;;;;;;;;;;8.89;46.16;101166.78;4952934;28;20418;-77
2021/01/11 00:05:29;;;;;;;;;;;;;;;8.89;46.49;101164.13;4958345;28;20021;-79
2021/01/11 00:07:56;;;;;;;;;;;;;;;8.90;46.96;101159.72;4953871;28;20042;-78
2021/01/11 00:10:23;;;;;;;;;;;;;;;8.92;46.88;101150.88;4965278;28;19934;-76
2021/01/11 00:12:49;;;;;;;;;;;;;;;8.93;47.27;101150.00;4960888;28;19974;-77
2021/01/11 00:15:16;;;;;;;;;;;;;;;8.95;47.57;101155.25;4955646;28;19930;-77
2021/01/11 00:17:44;;;;;;;;;;;;;;;8.95;47.75;101149.97;4958103;28;20313;-78
2021/01/11 00:20:11;;;;;;;;;;;;;;;8.97;48.21;101154.34;4954435;28;19989;-78
2021/01/11 00:22:42;;;;;;;;;;;;;;;8.96;48.37;101152.59;4965850;28;19926;-77
2021/01/11 00:25:11;;;;;;;;;;;;;;;8.97;48.32;101150.84;4960803;28;19981;-77
2021/01/11 00:27:40;;;;;;;;;;;;;;;8.97;48.52;101145.56;4956963;28;19926;-78
2021/01/11 00:30:07;;;;;;;;;;;;;;;8.97;48.96;101153.47;4959712;28;19930;-78
2021/01/11 00:32:35;;;;;;;;;;;;;;;8.95;49.25;101149.97;4963003;28;19932;-77
2021/01/11 00:35:05;;;;;;;;;;;;;;;8.98;49.09;101149.91;4959644;28;19966;-76
2021/01/11 00:37:32;;;;;;;;;;;;;;;8.94;49.39;101146.47;4962085;28;19968;-78
2021/01/11 00:39:59;;;;;;;;;;;;;;;8.96;49.19;101144.66;4963967;28;19926;-78
2021/01/11 00:42:26;;;;;;;;;;;;;;;8.97;49.58;101150.84;4953767;28;20394;-78
2021/01/11 00:44:56;;;;;;;;;;;;;;;8.94;49.44;101149.13;4959217;28;19926;-78
2021/01/11 00:47:23;;;;;;;;;;;;;;;8.93;49.59;101150.00;4957364;28;19934;-78
2021/01/11 00:49:49;;;;;;;;;;;;;;;8.93;49.77;101149.09;4975419;28;19965;-76
2021/01/11 00:52:18;;;;;;;;;;;;;;;8.91;50.24;101149.13;4958469;28;19927;-77
2021/01/11 00:54:45;;;;;;;;;;;;;;;8.91;49.71;101138.56;4974699;28;19933;-77
2021/01/11 00:57:19;;;;;;;;;;;;;;;8.92;49.91;101136.84;4972755;28;19985;-79
2021/01/11 00:59:52;;;;;;;;;;;;;;;8.92;50.44;101134.19;4971073;28;19930;-77
2021/01/11 01:02:24;;;;;;;;;;;;;;;8.92;50.40;101140.34;4975702;28;19945;-76
2021/01/11 01:04:51;;;;;;;;;;;;;;;8.90;50.44;101139.47;4963594;28;19956;-78
2021/01/11 01:07:18;;;;;;;;;;;;;;;8.90;50.05;101133.31;4957728;28;19996;-79
2021/01/11 01:09:45;;;;;;;;;;;;;;;8.88;50.37;101140.41;4957397;28;19926;-78
2021/01/11 01:12:12;;;;;;;;;;;;;;;8.87;50.72;101136.88;4957710;28;19964;-78
2021/01/11 01:14:39;;;;;;;;;;;;;;;8.86;50.36;101135.13;4969668;28;19938;-78
2021/01/11 01:17:06;;;;;;;;;;;;;;;8.85;50.40;101130.78;4957434;28;19974;-78
2021/01/11 01:19:33;;;;;;;;;;;;;;;8.85;50.61;101133.41;4957441;28;19930;-78
2021/01/11 01:22:00;;;;;;;;;;;;;;;8.84;51.28;101136.03;4956293;28;19931;-78
2021/01/11 01:24:27;;;;;;;;;;;;;;;8.82;50.81;101137.84;4955631;28;19926;-76
2021/01/11 01:26:54;;;;;;;;;;;;;;;8.79;51.21;101136.97;4952982;28;19970;-77
2021/01/11 01:29:21;;;;;;;;;;;;;;;8.79;51.14;101136.13;4974132;28;20320;-77
2021/01/11 01:31:48;;;;;;;;;;;;;;;8.77;51.22;101136.16;4949537;28;20200;-78
2021/01/11 01:34:15;;;;;;;;;;;;;;;8.77;51.49;101129.97;4958966;28;19931;-78
2021/01/11 01:36:41;;;;;;;;;;;;;;;8.76;51.36;101123.84;4960455;28;19934;-77
2021/01/11 01:39:08;;;;;;;;;;;;;;;8.76;51.45;101129.13;4952992;28;19926;-77
2021/01/11 01:41:36;;;;;;;;;;;;;;;8.75;51.58;101123.88;4958767;28;19935;-77
2021/01/11 01:44:03;;;;;;;;;;;;;;;8.75;51.65;101121.25;4961823;28;19937;-77
2021/01/11 01:46:31;;;;;;;;;;;;;;;8.72;51.96;101116.88;4953839;28;19949;-78
2021/01/11 01:48:59;;;;;;;;;;;;;;;8.72;51.65;101115.97;4960901;28;19993;-78
2021/01/11 01:51:26;;;;;;;;;;;;;;;8.69;51.87;101116.91;4939043;28;19941;-79
2021/01/11 01:53:53;;;;;;;;;;;;;;;8.68;52.13;101112.53;4952807;28;20377;-76
2021/01/11 01:56:20;;;;;;;;;;;;;;;8.66;51.71;101114.31;4969433;28;19930;-76
2021/01/11 01:58:48;;;;;;;;;;;;;;;8.65;51.92;101109.94;4967899;28;20014;-77
2021/01/11 02:01:14;;;;;;;;;;;;;;;8.63;51.81;101117.00;4964858;28;19927;-76
2021/01/11 02:03:41;;;;;;;;;;;;;;;8.64;52.09;101116.97;4961633;28;19945;-78
2021/01/11 02:06:08;;;;;;;;;;;;;;;8.63;52.14;101111.72;4958323;28;19926;-77
2021/01/11 02:08:37;;;;;;;;;;;;;;;8.63;52.13;101111.72;4958377;28;20292;-78
2021/01/11 02:11:11;;;;;;;;;;;;;;;8.60;52.41;101107.38;4963140;28;20049;-78
2021/01/11 02:13:45;;;;;;;;;;;;;;;8.61;52.09;101106.44;4957483;28;19969;-78
2021/01/11 02:16:16;;;;;;;;;;;;;;;8.58;52.31;101105.66;4965063;28;20405;-78
2021/01/11 02:18:45;;;;;;;;;;;;;;;8.57;52.48;101101.25;4956359;28;19930;-78
2021/01/11 02:21:34;;;;;;;;;;;;;;;8.56;52.39;101102.13;4971389;28;20395;-77
2021/01/11 02:24:23;;;;;;;;;;;;;;;8.58;52.54;101103.00;4940793;28;19930;-78
2021/01/11 02:27:07;;;;;;;;;;;;;;;8.56;52.38;101105.66;4958484;28;19934;-78
2021/01/11 02:29:42;;;;;;;;;;;;;;;8.59;52.30;101113.53;4957840;28;19936;-78
2021/01/11 02:32:10;;;;;;;;;;;;;;;8.62;52.44;101100.28;4962957;28;20413;-78
2021/01/11 02:34:38;;;;;;;;;;;;;;;8.67;52.64;101100.25;4953105;28;19965;-78
2021/01/11 02:37:06;;;;;;;;;;;;;;;8.69;51.88;101094.94;4956511;28;20310;-78
2021/01/11 02:39:33;;;;;;;;;;;;;;;8.73;52.39;101089.63;4973331;28;19931;-77
2021/01/11 02:42:00;;;;;;;;;;;;;;;8.75;52.27;101086.94;4956986;28;19926;-77
2021/01/11 02:44:27;;;;;;;;;;;;;;;8.77;52.53;101082.50;4961094;28;19930;-77
2021/01/11 02:46:54;;;;;;;;;;;;;;;8.83;52.59;101081.56;4954265;28;20542;-77
2021/01/11 02:49:25;;;;;;;;;;;;;;;8.88;52.15;101079.72;4955290;28;19988;-79
2021/01/11 02:51:59;;;;;;;;;;;;;;;8.90;52.02;101072.66;4956957;28;19930;-78
2021/01/11 02:54:33;;;;;;;;;;;;;;;9.10;49.89;101069.69;4966689;28;19930;-77
2021/01/11 02:57:03;;;;;;;;;;;;;;;9.19;49.57;101069.53;4955876;28;19937;-77
2021/01/11 02:59:32;;;;;;;;;;;;;;;9.14;50.32;101068.78;4958167;28;19931;-77
2021/01/11 03:02:09;;;;;;;;;;;;;;;9.14;50.24;101058.22;4952770;28;19933;-77
2021/01/11 03:04:38;;;;;;;;;;;;;;;9.17;51.10;101057.28;4955329;28;20113;-77
2021/01/11 03:07:05;;;;;;;;;;;;;;;9.29;49.28;101057.06;4962052;28;19936;-78
2021/01/11 03:09:34;;;;;;;;;;;;;;;9.33;48.37;101050.84;4965508;28;19980;-78
2021/01/11 03:12:02;;;;;;;;;;;;;;;9.42;46.93;101048.03;4962581;28;19952;-78
2021/01/11 03:14:29;;;;;;;;;;;;;;;9.50;46.35;101053.19;4960928;28;19933;-78
2021/01/11 03:16:55;;;;;;;;;;;;;;;9.53;45.87;101046.97;4958613;28;19933;-78
2021/01/11 03:19:22;;;;;;;;;;;;;;;9.56;44.90;101050.44;4959017;28;19927;-78
2021/01/11 03:21:50;;;;;;;;;;;;;;;9.60;44.72;101040.66;4962198;28;19930;-78
2021/01/11 03:24:18;;;;;;;;;;;;;;;9.60;44.49;101048.59;4964890;28;20008;-77
2021/01/11 03:26:45;;;;;;;;;;;;;;;9.63;44.36;101045.91;4966073;28;19956;-77
2021/01/11 03:29:12;;;;;;;;;;;;;;;9.52;43.94;101039.94;4955797;28;19938;-77
2021/01/11 03:31:39;;;;;;;;;;;;;;;9.42;44.89;101037.47;4953246;28;20023;-77
2021/01/11 03:34:06;;;;;;;;;;;;;;;9.33;45.58;101035.00;4971548;28;20013;-77
2021/01/11 03:36:32;;;;;;;;;;;;;;;9.27;46.49;101032.44;4970133;28;20013;-76
2021/01/11 03:39:00;;;;;;;;;;;;;;;9.22;46.49;101029.91;4964689;28;20398;-78
2021/01/11 03:41:27;;;;;;;;;;;;;;;9.18;46.89;101022.94;4967148;28;19977;-78
2021/01/11 03:43:54;;;;;;;;;;;;;;;9.13;47.28;101019.50;4951892;28;20017;-78
2021/01/11 03:46:20;;;;;;;;;;;;;;;9.11;47.59;101014.25;4957985;28;20267;-77
2021/01/11 03:48:47;;;;;;;;;;;;;;;9.10;48.08;101011.63;4944115;28;20208;-78
2021/01/11 03:51:14;;;;;;;;;;;;;;;9.08;48.34;101011.66;4955637;28;19937;-77
2021/01/11 03:53:43;;;;;;;;;;;;;;;9.05;48.61;101011.72;4957840;28;19941;-76
2021/01/11 03:56:11;;;;;;;;;;;;;;;9.02;49.18;101008.25;4964181;28;19930;-77
2021/01/11 03:58:38;;;;;;;;;;;;;;;9.04;48.82;101011.75;4938656;28;20395;-78
2021/01/11 04:01:05;;;;;;;;;;;;;;;9.00;48.70;101010.91;4953285;28;19926;-77
2021/01/11 04:03:32;;;;;;;;;;;;;;;8.98;49.36;101007.41;4967270;28;19934;-77
2021/01/11 04:05:59;;;;;;;;;;;;;;;8.97;49.26;101006.56;4958820;28;19934;-78
2021/01/11 04:08:31;;;;;;;;;;;;;;;8.97;49.94;100987.22;4960078;28;19934;-79
2021/01/11 04:10:58;;;;;;;;;;;;;;;8.94;49.81;100988.16;4965418;28;19937;-79
2021/01/11 04:13:26;;;;;;;;;;;;;;;8.92;50.07;100987.28;4951588;28;19985;-78
2021/01/11 04:15:53;;;;;;;;;;;;;;;8.91;49.61;100988.19;4974635;28;19926;-77
2021/01/11 04:18:19;;;;;;;;;;;;;;;8.89;49.84;100983.81;4962571;28;19981;-77
2021/01/11 04:20:46;;;;;;;;;;;;;;;8.89;49.92;100984.72;4961854;28;19926;-77
2021/01/11 04:23:13;;;;;;;;;;;;;;;8.88;50.28;100976.84;4956477;28;19926;-78
2021/01/11 04:25:40;;;;;;;;;;;;;;;8.86;50.27;100966.28;4957060;28;19931;-77
2021/01/11 04:28:06;;;;;;;;;;;;;;;8.86;50.13;100966.28;4946653;28;19970;-78
2021/01/11 04:30:34;;;;;;;;;;;;;;;8.86;50.43;100962.78;4966644;28;19933;-78
2021/01/11 04:33:01;;;;;;;;;;;;;;;8.84;50.47;100964.56;4957308;28;20012;-77
2021/01/11 04:35:35;;;;;;;;;;;;;;;8.79;50.74;100965.50;4964092;28;20025;-76
2021/01/11 04:38:01;;;;;;;;;;;;;;;8.78;50.71;100960.28;4953954;28;19932;-77
2021/01/11 04:40:30;;;;;;;;;;;;;;;8.79;50.93;100959.38;4956623;28;20202;-76
2021/01/11 04:43:03;;;;;;;;;;;;;;;8.79;51.10;100954.09;4956783;28;19933;-77
2021/01/11 04:45:31;;;;;;;;;;;;;;;8.77;51.09;100955.88;4951410;28;20025;-77
2021/01/11 04:48:00;;;;;;;;;;;;;;;8.74;50.86;100956.81;4961401;28;21725;-77
2021/01/11 04:50:27;;;;;;;;;;;;;;;8.73;51.00;100960.38;4951983;28;20386;-77
2021/01/11 04:52:54;;;;;;;;;;;;;;;8.73;51.20;100957.72;4953332;28;19977;-78
2021/01/11 04:55:22;;;;;;;;;;;;;;;8.73;50.93;100954.19;4955401;28;20379;-78
2021/01/11 04:57:50;;;;;;;;;;;;;;;8.69;51.28;100952.50;4950498;28;19933;-78
2021/01/11 05:00:21;;;;;;;;;;;;;;;8.69;51.42;100953.38;4962581;28;20008;-78
2021/01/11 05:02:51;;;;;;;;;;;;;;;8.66;51.60;100953.44;4956199;28;19996;-76
2021/01/11 05:05:18;;;;;;;;;;;;;;;8.64;51.57;100953.47;4978844;28;19938;-78
2021/01/11 05:07:45;;;;;;;;;;;;;;;8.64;51.82;100952.56;4951747;28;19926;-77
2021/01/11 05:10:20;;;;;;;;;;;;;;;8.61;52.03;100942.94;4954672;28;19930;-77
2021/01/11 05:12:52;;;;;;;;;;;;;;;8.61;51.68;100947.34;4956635;28;19958;-77
2021/01/11 05:15:21;;;;;;;;;;;;;;;8.57;51.51;100948.31;4960281;28;20366;-77
2021/01/11 05:17:47;;;;;;;;;;;;;;;8.57;52.27;100943.03;4967649;28;19934;-78
2021/01/11 05:20:15;;;;;;;;;;;;;;;8.55;52.24;100936.91;4956211;28;19939;-78
2021/01/11 05:22:47;;;;;;;;;;;;;;;8.53;52.46;100939.56;4963688;28;19982;-77
2021/01/11 05:25:14;;;;;;;;;;;;;;;8.53;52.31;100938.72;4951529;28;19937;-78
2021/01/11 05:27:42;;;;;;;;;;;;;;;8.50;51.85;100938.72;4955538;28;19930;-77
2021/01/11 05:30:10;;;;;;;;;;;;;;;8.49;52.06;100931.75;4958084;28;19934;-77
2021/01/11 05:32:37;;;;;;;;;;;;;;;8.48;52.27;100933.50;4979613;28;19926;-77
2021/01/11 05:35:04;;;;;;;;;;;;;;;8.46;52.22;100928.25;4964235;28;20013;-77
2021/01/11 05:37:32;;;;;;;;;;;;;;;8.45;52.77;100930.88;4953333;28;20425;-78
2021/01/11 05:40:04;;;;;;;;;;;;;;;8.45;52.75;100922.97;4957300;28;19937;-78
2021/01/11 05:42:31;;;;;;;;;;;;;;;8.42;52.25;100921.25;4960786;28;20186;-77
2021/01/11 05:45:08;;;;;;;;;;;;;;;8.42;52.69;100915.13;4976892;28;20314;-77
2021/01/11 05:47:35;;;;;;;;;;;;;;;8.40;52.31;100909.84;4963181;28;19927;-77
2021/01/11 05:50:11;;;;;;;;;;;;;;;8.40;52.61;100907.22;4971242;28;19960;-77
2021/01/11 05:52:38;;;;;;;;;;;;;;;8.38;52.38;100916.03;4957685;28;20187;-78
2021/01/11 05:55:18;;;;;;;;;;;;;;;8.36;52.58;100912.56;4958986;28;19939;-77
2021/01/11 05:57:52;;;;;;;;;;;;;;;8.35;52.46;100909.03;4964097;28;19930;-77
2021/01/11 06:00:20;;;;;;;;;;;;;;;8.34;52.45;100909.97;4953363;28;19934;-77
2021/01/11 06:02:47;;;;;;;;;;;;;;;8.33;53.11;100907.34;4953520;28;19930;-77
2021/01/11 06:05:58;;;;;;;;;;;;;;;8.30;52.84;100909.13;4960743;28;19935;-79
2021/01/11 06:08:36;;;;;;;;;;;;;;;8.27;53.16;100898.66;4950754;28;19934;-78
2021/01/11 06:11:08;;;;;;;;;;;;;;;8.25;52.86;100895.16;4964436;28;20057;-77
2021/01/11 06:13:35;;;;;;;;;;;;;;;8.27;53.13;100903.03;4951068;28;19945;-77
2021/01/11 06:16:02;;;;;;;;;;;;;;;8.39;52.70;100888.78;4953416;28;19936;-78
2021/01/11 06:18:36;;;;;;;;;;;;;;;8.57;50.35;100892.94;4948011;28;19930;-78
2021/01/11 06:21:09;;;;;;;;;;;;;;;8.63;49.59;100888.41;4929320;28;19946;-78
2021/01/11 06:23:38;;;;;;;;;;;;;;;8.71;48.62;100890.06;4951088;28;20403;-79
2021/01/11 06:26:23;;;;;;;;;;;;;;;8.72;47.65;100884.75;4951744;28;20527;-78
2021/01/11 06:29:19;;;;;;;;;;;;;;;8.76;46.85;100867.97;4948220;28;19937;-80
2021/01/11 06:32:09;;;;;;;;;;;;;;;8.83;46.12;100878.44;4955785;28;19934;-78
2021/01/11 06:34:56;;;;;;;;;;;;;;;8.85;45.48;100866.94;4943041;28;19930;-78
2021/01/11 06:45:53;;;;;;;;;;;;;;;8.63;45.43;100854.13;4917514;28;20315;-78
2021/01/11 06:49:26;;;;;;;;;;;;;;;8.47;46.81;100853.53;4848132;29;20568;-78
2021/01/11 07:09:21;;;;;;;;;;;;;;;8.41;49.64;100827.22;4821016;29;20019;-80
2021/01/11 07:11:49;;;;;;;;;;;;;;;8.42;50.25;100822.84;4830619;29;19960;-80
2021/01/11 07:14:16;;;;;;;;;;;;;;;8.45;49.63;100815.75;4839029;29;20357;-80
2021/01/11 07:16:44;;;;;;;;;;;;;;;8.49;49.68;100811.31;4832997;29;20036;-79
2021/01/11 07:19:12;;;;;;;;;;;;;;;8.52;50.25;100811.25;4833164;29;20565;-80
2021/01/11 07:21:40;;;;;;;;;;;;;;;8.53;50.55;100813.00;4841496;29;20282;-82
2021/01/11 07:24:08;;;;;;;;;;;;;;;8.54;50.74;100809.47;4839526;29;20282;-79
2021/01/11 07:26:36;;;;;;;;;;;;;;;8.59;50.92;100804.13;4838154;29;20028;-79
2021/01/11 07:29:04;;;;;;;;;;;;;;;8.56;51.03;100809.44;4839102;29;20093;-79
2021/01/11 07:31:33;;;;;;;;;;;;;;;8.60;50.66;100797.94;4842358;29;20403;-80
2021/01/11 07:34:02;;;;;;;;;;;;;;;8.59;51.41;100793.59;4905920;29;19938;-80
2021/01/11 07:36:30;;;;;;;;;;;;;;;8.61;50.77;100789.13;4924257;28;19934;-80
2021/01/11 07:39:11;;;;;;;;;;;;;;;8.61;50.65;100786.50;4964553;28;19958;-80
2021/01/11 07:41:39;;;;;;;;;;;;;;;8.63;51.18;100796.13;4936394;28;20379;-79
2021/01/11 07:44:13;;;;;;;;;;;;;;;8.62;51.54;100786.47;4960503;28;19953;-80
2021/01/11 07:46:41;;;;;;;;;;;;;;;8.62;51.36;100772.41;4951770;28;19975;-81
2021/01/11 07:49:12;;;;;;;;;;;;;;;8.59;51.50;100780.41;4949876;28;19930;-80
2021/01/11 07:51:39;;;;;;;;;;;;;;;8.60;51.74;100776.84;4935490;28;20098;-80
2021/01/11 07:54:07;;;;;;;;;;;;;;;8.61;51.54;100762.75;4950020;28;19973;-79
2021/01/11 07:56:33;;;;;;;;;;;;;;;8.61;51.64;100770.66;4951337;28;20025;-79
2021/01/11 07:59:04;;;;;;;;;;;;;;;8.61;52.24;100760.97;4946440;28;19966;-79
2021/01/11 08:01:30;;;;;;;;;;;;;;;8.61;52.30;100757.47;4929235;28;19941;-80
2021/01/11 08:03:57;;;;;;;;;;;;;;;8.58;52.23;100761.06;4952398;28;19933;-79
2021/01/11 08:06:24;;;;;;;;;;;;;;;8.55;52.64;100753.22;4951162;28;19941;-80
2021/01/11 08:08:53;;;;;;;;;;;;;;;8.55;52.59;100747.94;4952013;28;19941;-79
2021/01/11 08:11:20;;;;;;;;;;;;;;;8.55;52.66;100744.41;4948176;28;19930;-78
2021/01/11 08:13:50;;;;;;;;;;;;;;;8.57;52.50;100747.91;4930160;28;20032;-79
2021/01/11 08:16:18;;;;;;;;;;;;;;;8.56;52.77;100736.50;4943806;28;19941;-77
2021/01/11 08:18:45;;;;;;;;;;;;;;;8.56;52.55;100744.41;4950502;28;20038;-77
2021/01/11 08:21:12;;;;;;;;;;;;;;;8.59;52.81;100738.22;4955689;28;19926;-79
2021/01/11 08:23:39;;;;;;;;;;;;;;;8.54;52.53;100732.16;4951988;28;19963;-78
2021/01/11 08:26:09;;;;;;;;;;;;;;;8.54;52.66;100721.59;4951581;28;19950;-78
2021/01/11 08:28:37;;;;;;;;;;;;;;;8.54;52.81;100725.09;4940707;28;20301;-78
2021/01/11 08:31:04;;;;;;;;;;;;;;;8.57;52.81;100721.53;4945454;28;19938;-77
2021/01/11 08:33:33;;;;;;;;;;;;;;;8.58;53.28;100715.38;4946310;28;20415;-79
2021/01/11 08:36:18;;;;;;;;;;;;;;;8.51;53.34;100713.72;4948709;28;19938;-78
2021/01/11 08:39:15;;;;;;;;;;;;;;;8.52;53.14;100718.13;4948562;28;19934;-79
2021/01/11 08:41:46;;;;;;;;;;;;;;;8.54;53.67;100716.31;4874849;29;19932;-78
2021/01/11 08:44:30;;;;;;;;;;;;;;;8.54;53.38;100696.09;4933023;28;20427;-79
2021/01/11 08:47:04;;;;;;;;;;;;;;;8.56;53.91;100706.59;4950717;28;19930;-79
2021/01/11 08:49:32;;;;;;;;;;;;;;;8.58;53.33;100696.91;4950110;28;19977;-79
2021/01/11 08:52:09;;;;;;;;;;;;;;;8.54;53.58;100701.38;4949235;28;19934;-78
2021/01/11 08:54:38;;;;;;;;;;;;;;;8.55;53.73;100694.31;4950151;28;19932;-78
2021/01/11 08:57:09;;;;;;;;;;;;;;;8.54;53.88;100693.44;4945485;28;20399;-79
2021/01/11 08:59:49;;;;;;;;;;;;;;;8.51;53.98;100685.63;4947855;28;19937;-78
2021/01/11 09:02:24;;;;;;;;;;;;;;;8.69;53.04;100683.50;4933379;28;20485;-78
2021/01/11 09:04:53;;;;;;;;;;;;;;;8.69;53.26;100687.00;4961434;28;19934;-78
2021/01/11 09:07:30;;;;;;;;;;;;;;;8.69;53.13;100679.06;4952216;28;20219;-78
2021/01/11 09:09:57;;;;;;;;;;;;;;;8.73;53.33;100679.88;4949143;28;19969;-78
2021/01/11 09:12:28;;;;;;;;;;;;;;;8.81;52.59;100677.94;4948386;28;20160;-78
2021/01/11 09:14:58;;;;;;;;;;;;;;;8.90;51.46;100672.47;4966685;28;20025;-78
2021/01/11 09:17:25;;;;;;;;;;;;;;;8.95;49.93;100660.06;4952604;28;19941;-78
2021/01/11 09:19:53;;;;;;;;;;;;;;;9.05;48.47;100673.03;4952330;28;20025;-77
2021/01/11 09:22:29;;;;;;;;;;;;;;;9.09;48.06;100665.03;4953270;28;19935;-77
2021/01/11 09:24:56;;;;;;;;;;;;;;;9.14;47.65;100667.59;4932143;28;20988;-78
2021/01/11 09:27:24;;;;;;;;;;;;;;;9.18;46.58;100663.09;4948776;28;20540;-78
2021/01/11 09:29:51;;;;;;;;;;;;;;;9.20;46.70;100661.28;4956305;28;20045;-78
2021/01/11 09:32:18;;;;;;;;;;;;;;;9.19;46.25;100657.75;4956792;28;19940;-78
2021/01/11 09:34:48;;;;;;;;;;;;;;;9.27;46.12;100644.38;4958589;28;19938;-78
2021/01/11 09:37:16;;;;;;;;;;;;;;;9.33;45.26;100660.09;4963357;28;19937;-79
2021/01/11 09:39:43;;;;;;;;;;;;;;;9.36;45.07;100644.16;4950090;28;20700;-80
2021/01/11 09:42:10;;;;;;;;;;;;;;;9.40;44.87;100648.50;4949615;28;19934;-78
2021/01/11 09:44:37;;;;;;;;;;;;;;;9.25;45.41;100646.22;4938080;28;19936;-78
2021/01/11 09:47:05;;;;;;;;;;;;;;;9.16;47.10;100643.78;4956210;28;19945;-78
2021/01/11 09:49:32;;;;;;;;;;;;;;;9.11;47.02;100639.50;4951888;28;19981;-78
2021/01/11 09:51:59;;;;;;;;;;;;;;;9.12;47.19;100635.06;4951745;28;19935;-77
2021/01/11 09:54:27;;;;;;;;;;;;;;;9.11;47.87;100641.25;4946096;28;19973;-79
2021/01/11 09:56:57;;;;;;;;;;;;;;;9.10;48.29;100624.56;4951215;28;19934;-78
2021/01/11 09:59:26;;;;;;;;;;;;;;;9.15;48.68;100629.72;4953311;28;19934;-78
2021/01/11 10:01:54;;;;;;;;;;;;;;;9.17;49.17;100611.22;4957235;28;19997;-78
2021/01/11 10:04:21;;;;;;;;;;;;;;;9.15;49.39;100616.50;4951255;28;19930;-78
2021/01/11 10:06:49;;;;;;;;;;;;;;;9.16;49.52;100618.25;4934288;28;20045;-77
2021/01/11 10:09:17;;;;;;;;;;;;;;;9.18;49.70;100605.91;4945958;28;19930;-78
2021/01/11 10:11:46;;;;;;;;;;;;;;;9.21;50.07;100602.31;4948987;28;19974;-78
2021/01/11 10:14:13;;;;;;;;;;;;;;;9.24;50.05;100604.88;4953128;28;19973;-79
2021/01/11 10:16:42;;;;;;;;;;;;;;;9.24;50.33;100595.19;4951908;28;20342;-78
2021/01/11 10:19:09;;;;;;;;;;;;;;;9.23;50.52;100585.56;4963836;28;19993;-78
2021/01/11 10:21:37;;;;;;;;;;;;;;;9.24;50.58;100573.22;4949589;28;20394;-80
2021/01/11 10:24:08;;;;;;;;;;;;;;;9.24;50.70;100575.84;4947843;28;19941;-78
2021/01/11 10:26:36;;;;;;;;;;;;;;;9.26;51.14;100579.31;4950459;28;19985;-78
2021/01/11 10:29:03;;;;;;;;;;;;;;;9.25;51.37;100569.66;4935817;28;19961;-78
2021/01/11 10:31:30;;;;;;;;;;;;;;;9.25;51.02;100573.16;4936109;28;19934;-78
2021/01/11 10:33:58;;;;;;;;;;;;;;;9.24;51.68;100560.88;4952557;28;19966;-78
2021/01/11 10:36:24;;;;;;;;;;;;;;;9.25;51.56;100552.03;4949708;28;19962;-78
2021/01/11 10:38:52;;;;;;;;;;;;;;;9.25;52.13;100554.69;4949766;28;20032;-78
2021/01/11 10:46:05;;;;;;;;;;;;;;;;;;;;;
2021/01/11 10:52:32;;;;;;;;;;;;;;;9.32;52.15;100536.06;4854211;29;20961;-78
2021/01/11 10:58:55;;;;;;;;;;;;;;;9.28;52.70;100522.06;4853370;29;20032;-78
2021/01/11 11:01:22;;;;;;;;;;;;;;;9.27;52.10;100513.28;4893403;29;19935;-78
2021/01/11 11:04:24;;;;;;;;;;;;;;;;;;;;;
2021/01/11 11:07:45;;;;;;;;;;;;;;;;;;;;;
2021/01/11 11:10:55;;;;;;;;;;;;;;;9.27;52.58;100504.50;4949414;28;19967;-77
2021/01/11 11:13:27;;;;;;;;;;;;;;;9.25;52.56;100496.63;4946074;28;19985;-77
2021/01/11 11:15:55;;;;;;;;;;;;;;;9.25;53.30;100501.03;4951147;28;20032;-77
2021/01/11 11:21:41;;;;;;;;;;;;;;;9.26;53.22;100489.59;4865979;28;19932;-77
2021/01/11 11:24:46;;;;;;;;;;;;;;;9.27;53.35;100486.00;4965205;28;19978;-78
2021/01/11 11:31:33;;;;;;;;;;;;;;;9.21;53.53;100473.84;4907327;28;20087;-78
2021/01/11 11:34:07;;;;;;;;;;;;;;;9.23;53.50;100466.78;4960193;28;19969;-78
2021/01/11 11:36:34;;;;;;;;;;;;;;;9.23;53.83;100456.22;4942986;28;19934;-78
2021/01/11 11:39:01;;;;;;;;;;;;;;;9.20;53.14;100456.28;4944036;28;19930;-78
2021/01/11 11:41:28;;;;;;;;;;;;;;;9.31;52.46;100455.97;4948345;28;19934;-78
2021/01/11 11:43:55;;;;;;;;;;;;;;;9.43;51.17;100455.66;4953094;28;19940;-78
2021/01/11 11:46:22;;;;;;;;;;;;;;;9.53;50.41;100450.13;4944239;28;20346;-78
2021/01/11 11:48:55;;;;;;;;;;;;;;;9.58;49.17;100442.94;4944152;28;20484;-78
2021/01/11 11:51:22;;;;;;;;;;;;;;;9.62;47.86;100431.38;4947605;28;19938;-77
2021/01/11 11:53:48;;;;;;;;;;;;;;;9.65;47.11;100444.50;4948101;28;20021;-77
2021/01/11 11:56:15;;;;;;;;;;;;;;;9.73;47.23;100429.31;4950038;28;19954;-77
2021/01/11 11:58:42;;;;;;;;;;;;;;;9.76;46.78;100420.44;4952466;28;19937;-78
2021/01/11 12:31:14;;;;;;;;;;;;;;;9.61;46.39;100376.81;5081284;27;19978;-74
2021/01/11 12:33:41;;;;;;;;;;;;;;;9.51;47.10;100373.59;5075922;28;19928;-74
2021/01/11 12:36:21;;;;;;;;;;;;;;;9.43;48.44;100376.47;5074137;28;19939;-75
2021/01/11 12:38:48;;;;;;;;;;;;;;;9.37;48.95;100373.97;5082194;28;20035;-75
2021/01/11 12:41:15;;;;;;;;;;;;;;;9.33;49.54;100369.72;5083646;28;19933;-74
2021/01/11 12:43:42;;;;;;;;;;;;;;;9.26;49.71;100363.75;5070442;28;20397;-75
2021/01/11 12:46:10;;;;;;;;;;;;;;;9.25;50.05;100358.50;5072392;28;19970;-74
2021/01/11 12:48:38;;;;;;;;;;;;;;;9.22;50.35;100356.81;5085643;28;19928;-75
2021/01/11 12:51:05;;;;;;;;;;;;;;;9.22;50.78;100363.84;5074983;28;19939;-75
2021/01/11 12:53:32;;;;;;;;;;;;;;;9.18;51.08;100357.81;5073501;28;20270;-75
2021/01/11 12:55:59;;;;;;;;;;;;;;;9.17;51.38;100348.16;5075057;28;20647;-74
2021/01/11 12:58:26;;;;;;;;;;;;;;;9.13;51.55;100344.72;5084240;28;19932;-74
2021/01/11 13:00:54;;;;;;;;;;;;;;;9.11;52.24;100336.00;5069895;28;19925;-74
2021/01/11 13:03:21;;;;;;;;;;;;;;;9.11;51.59;100336.00;5085735;28;19929;-75
2021/01/11 13:05:49;;;;;;;;;;;;;;;9.10;52.47;100333.38;5090080;28;19924;-75
2021/01/11 13:08:16;;;;;;;;;;;;;;;9.08;52.57;100338.72;5074779;28;19932;-74
2021/01/11 13:10:43;;;;;;;;;;;;;;;9.08;52.65;100336.06;5075683;28;20091;-74
2021/01/11 13:13:10;;;;;;;;;;;;;;;9.15;52.50;100323.56;5084710;28;21148;-75
2021/01/11 13:15:36;;;;;;;;;;;;;;;9.13;52.87;100330.69;5071597;28;19932;-74
2021/01/11 13:18:03;;;;;;;;;;;;;;;9.14;52.63;100325.38;5076159;28;20401;-75
2021/01/11 13:20:30;;;;;;;;;;;;;;;9.11;53.36;100321.94;5077810;28;19928;-75
2021/01/11 13:22:58;;;;;;;;;;;;;;;9.08;53.23;100322.88;5075372;28;19939;-75
2021/01/11 13:25:27;;;;;;;;;;;;;;;9.04;53.40;100331.78;5073586;28;19943;-74
2021/01/11 13:27:54;;;;;;;;;;;;;;;8.99;54.16;100324.94;5068821;28;19954;-74
2021/01/11 13:30:21;;;;;;;;;;;;;;;8.95;54.21;100335.53;5086950;28;19932;-74
2021/01/11 13:32:48;;;;;;;;;;;;;;;8.90;54.18;100323.41;5062152;28;19932;-75
2021/01/11 13:35:19;;;;;;;;;;;;;;;8.91;54.11;100323.34;5059394;28;19931;-74
2021/01/11 13:37:46;;;;;;;;;;;;;;;8.90;54.17;100328.66;5060604;28;19926;-74
2021/01/11 13:40:14;;;;;;;;;;;;;;;8.86;54.45;100330.53;5053875;28;19980;-75
2021/01/11 13:42:41;;;;;;;;;;;;;;;8.87;54.05;100318.22;5070755;28;19933;-77
2021/01/11 13:45:08;;;;;;;;;;;;;;;8.85;54.66;100312.09;5060781;28;20011;-76
2021/01/11 13:47:44;;;;;;;;;;;;;;;8.83;55.13;100313.94;5060262;28;19964;-75
2021/01/11 13:50:15;;;;;;;;;;;;;;;8.84;54.19;100315.63;5059792;28;19928;-75
2021/01/11 13:52:42;;;;;;;;;;;;;;;8.82;54.99;100310.41;5069108;28;20385;-75
2021/01/11 13:55:09;;;;;;;;;;;;;;;8.79;54.54;100300.81;5053198;28;19967;-76
2021/01/11 13:57:37;;;;;;;;;;;;;;;8.76;54.93;100298.25;5052153;28;19928;-76
2021/01/11 14:00:06;;;;;;;;;;;;;;;8.92;53.82;100287.31;5036974;28;19962;-77
2021/01/11 14:02:33;;;;;;;;;;;;;;;9.08;51.86;100300.91;5033609;28;19932;-79
2021/01/11 14:05:00;;;;;;;;;;;;;;;9.15;51.16;100289.25;5029622;28;19939;-75
2021/01/11 14:07:28;;;;;;;;;;;;;;;9.19;50.46;100284.78;5026988;28;20472;-75
2021/01/11 14:09:55;;;;;;;;;;;;;;;9.25;49.25;100274.03;5024465;28;19964;-74
2021/01/11 14:12:22;;;;;;;;;;;;;;;9.32;48.33;100277.38;5031732;28;19932;-75
2021/01/11 14:14:50;;;;;;;;;;;;;;;9.31;48.48;100271.19;5034429;28;19978;-74
2021/01/11 14:17:18;;;;;;;;;;;;;;;9.36;47.70;100263.16;5035838;28;19929;-75
2021/01/11 14:19:45;;;;;;;;;;;;;;;9.39;47.41;100260.41;5030566;28;21151;-75